Waldport, OR

9:10 PM PDT on August 26, 2016 (GMT -0700)
Mr.Wizard | | Change Station

Elev 56 ft 44.42 °N, 124.08 °W | Updated 3 seconds ago

Overcast
Overcast
53.8 °F
Feels Like 53.8 °F
N
0.0
Wind Variable Wind from SSE
Gusts 5.0 mph

Today
High -- | Low -- °F
--% Chance of Precip.
Yesterday
High -- | Low -- °F
Precip. -- in
Pressure 29.97 in
Visibility 1.5 miles
Clouds Overcast 300 ft
Dew Point 38 °F
Humidity 55%
Rainfall 0.00 in
Snow Depth Not available.
6:32 AM 8:02 PM
Waning Crescent, 28% visible
METAR KONP 270355Z AUTO 20015KT 1 1/2SM BR OVC003 11/11 A2997 RMK AO2
Pressure 29.97 in
Visibility 1.5 miles
Clouds Overcast 300 ft
Dew Point 38 °F
Humidity 55%
Rainfall 0.00 in
Snow Depth Not available.
6:32 AM 8:02 PM
Waning Crescent, 28% visible
METAR KONP 270355Z AUTO 20015KT 1 1/2SM BR OVC003 11/11 A2997 RMK AO2

10-Day Weather Forecast

Almanac

Astronomy

Aug. 26, 2016 Rise Set
Actual Time
Civil Twilight
Nautical Twilight
Astronomical Twilight
Moon
Length of Visible Light
Length of Day
Tomorrow will be .
, % of the Moon is Illuminated

Today's Extremes

State Highs State Lows

Community

WunderPhotos

Upload Photos

1,935,292 photos uploaded!

WunderBlog® & News

Nearby

Air Quality

  Air Quality AQ Index Pollutant
Not available.

Snow Depth

Station Depth Elevation

Earthquake Activity

City Distance Mag. Time & Date
Minimum magnitude displayed is 2.5.

Coastal Water Temperatures

Place Temperature

Stations

Nearby Weather Stations

Station Location Temp. Windchill Dew Point Humidity Wind Precip. Elev Updated Type
                   

Watches & Warnings

There are currently no watches in effect.